createdAt,value
2023-04-02T00:01:01.914Z,1.85
2023-04-02T00:03:45.063Z,2.80
2023-04-02T00:09:26.261Z,3.28
2023-04-02T00:11:54.929Z,3.15
2023-04-02T00:14:29.893Z,3.70
2023-04-02T00:17:01.688Z,3.67
2023-04-02T00:20:06.664Z,4.00
2023-04-02T00:22:34.676Z,3.67
2023-04-02T00:25:08.665Z,4.10
2023-04-02T00:27:36.935Z,4.15
2023-04-02T00:30:04.451Z,3.50
2023-04-02T00:32:33.827Z,4.55
2023-04-02T00:35:01.940Z,3.85
2023-04-02T00:37:39.140Z,4.38
2023-04-02T00:40:17.467Z,4.43
2023-04-02T00:42:45.179Z,4.53
2023-04-02T00:45:29.414Z,3.88
2023-04-02T00:47:59.813Z,5.32
2023-04-02T00:50:32.273Z,3.65
2023-04-02T00:53:04.993Z,4.38
2023-04-02T00:55:39.189Z,4.10
2023-04-02T00:58:30.840Z,4.80
2023-04-02T01:00:59.634Z,4.68
2023-04-02T01:03:35.465Z,4.78
2023-04-02T01:06:10.825Z,3.95
2023-04-02T01:09:18.500Z,3.53
2023-04-02T01:12:07.977Z,5.10
2023-04-02T01:14:36.955Z,4.40
2023-04-02T01:17:43.170Z,4.38
2023-04-02T01:20:41.076Z,3.50
2023-04-02T01:23:37.255Z,3.97
2023-04-02T01:26:22.980Z,4.45
2023-04-02T01:29:29.474Z,4.60
2023-04-02T01:32:10.782Z,4.20
2023-04-02T01:34:39.814Z,4.35
2023-04-02T01:37:32.987Z,3.95
2023-04-02T01:40:40.221Z,4.15
2023-04-02T01:43:48.113Z,4.65
2023-04-02T01:46:28.362Z,4.05
2023-04-02T01:48:58.481Z,5.55
2023-04-02T01:51:33.249Z,4.70
2023-04-02T01:54:06.659Z,3.22
2023-04-02T01:56:35.977Z,3.00
2023-04-02T01:59:11.562Z,4.40
2023-04-02T02:02:09.645Z,5.03
2023-04-02T02:04:38.777Z,4.63
2023-04-02T02:07:10.705Z,4.10
2023-04-02T02:09:40.754Z,5.22
2023-04-02T02:12:07.985Z,5.82
2023-04-02T02:14:35.473Z,5.25
2023-04-02T02:17:05.197Z,4.65
2023-04-02T02:19:48.286Z,5.30
2023-04-02T02:22:39.141Z,5.03
2023-04-02T02:25:28.489Z,4.82
2023-04-02T02:28:16.522Z,5.90
2023-04-02T02:30:51.484Z,4.75
2023-04-02T02:33:26.594Z,4.88
2023-04-02T02:36:14.379Z,5.35
2023-04-02T02:38:54.382Z,4.47
2023-04-02T02:41:47.771Z,5.00
2023-04-02T02:44:36.173Z,6.00
2023-04-02T02:47:16.284Z,6.53
2023-04-02T02:49:50.418Z,6.07
2023-04-02T02:52:39.277Z,6.78
2023-04-02T02:55:14.536Z,4.75
2023-04-02T02:57:52.039Z,6.18
2023-04-02T03:00:19.849Z,6.20
2023-04-02T03:02:48.379Z,4.97
2023-04-02T03:05:24.536Z,6.15
2023-04-02T03:07:55.504Z,4.68
2023-04-02T03:11:06.680Z,4.72
2023-04-02T03:13:39.219Z,5.50
2023-04-02T03:16:16.837Z,5.00
2023-04-02T03:18:56.213Z,4.05
2023-04-02T03:21:39.625Z,4.25
2023-04-02T03:24:16.100Z,3.72
2023-04-02T03:26:55.595Z,5.28
2023-04-02T03:29:37.027Z,5.20
2023-04-02T03:32:24.682Z,4.28
2023-04-02T03:35:03.490Z,4.80
2023-04-02T03:37:44.080Z,4.40
2023-04-02T03:40:32.208Z,5.43
2023-04-02T03:43:12.700Z,4.30
2023-04-02T03:45:49.492Z,4.30
2023-04-02T03:48:45.832Z,4.80
2023-04-02T03:51:32.816Z,4.68
2023-04-02T03:54:00.563Z,4.70
2023-04-02T03:56:40.019Z,4.50
2023-04-02T03:59:35.033Z,6.00
2023-04-02T04:02:13.064Z,5.97
2023-04-02T04:04:43.796Z,5.43
2023-04-02T04:07:35.359Z,5.32
2023-04-02T04:10:06.587Z,5.05
2023-04-02T04:12:44.632Z,5.28
2023-04-02T04:15:27.077Z,4.93
2023-04-02T04:18:12.593Z,5.25
2023-04-02T04:20:57.502Z,5.85
2023-04-02T04:23:51.238Z,4.95
2023-04-02T04:26:44.157Z,5.65
2023-04-02T04:29:26.464Z,5.60
2023-04-02T04:31:56.851Z,4.40
2023-04-02T04:34:53.850Z,5.57
2023-04-02T04:37:29.667Z,5.07
2023-04-02T04:40:12.431Z,4.80
2023-04-02T04:42:43.444Z,4.28
2023-04-02T04:45:30.783Z,5.03
2023-04-02T04:48:23.485Z,4.97
2023-04-02T04:51:06.483Z,5.03
2023-04-02T04:53:33.689Z,5.93
2023-04-02T04:56:18.112Z,7.47
2023-04-02T04:59:01.125Z,6.90
2023-04-02T05:01:48.837Z,7.57
2023-04-02T05:04:26.525Z,7.07
2023-04-02T05:07:31.058Z,6.35
2023-04-02T05:10:19.651Z,5.95
2023-04-02T05:13:02.840Z,7.03
2023-04-02T05:18:25.740Z,6.57
2023-04-02T05:20:52.911Z,7.22
2023-04-02T05:23:33.397Z,6.28
2023-04-02T05:26:37.955Z,6.75
2023-04-02T05:29:41.760Z,6.82
2023-04-02T05:32:32.244Z,6.68
2023-04-02T05:35:00.405Z,6.43
2023-04-02T05:37:29.539Z,6.07
2023-04-02T05:40:02.655Z,6.80
2023-04-02T05:42:33.149Z,6.38
2023-04-02T05:45:20.737Z,6.35
2023-04-02T05:47:53.573Z,5.68
2023-04-02T05:50:37.602Z,5.28
2023-04-02T05:53:22.047Z,6.38
2023-04-02T05:56:21.329Z,6.80
2023-04-02T05:59:16.630Z,5.07
2023-04-02T06:02:11.732Z,5.07
2023-04-02T06:04:54.326Z,6.00
2023-04-02T06:07:36.970Z,4.15
2023-04-02T06:10:27.580Z,4.85
2023-04-02T06:13:03.904Z,4.65
2023-04-02T06:15:33.855Z,5.25
2023-04-02T06:18:17.295Z,4.60
2023-04-02T06:23:39.530Z,5.38
2023-04-02T06:26:15.714Z,4.97
2023-04-02T06:29:07.328Z,5.88
2023-04-02T06:31:57.912Z,3.80
2023-04-02T06:34:28.150Z,5.85
2023-04-02T06:36:59.564Z,5.35
2023-04-02T06:39:28.790Z,4.90
2023-04-02T06:42:12.059Z,4.10
2023-04-02T06:44:39.637Z,4.75
2023-04-02T06:47:32.817Z,4.22
2023-04-02T06:50:13.258Z,4.82
2023-04-02T06:52:57.392Z,4.32
2023-04-02T06:55:48.449Z,4.70
2023-04-02T06:58:18.251Z,5.97
2023-04-02T07:00:48.694Z,5.65
2023-04-02T07:03:17.238Z,6.40
2023-04-02T07:05:44.683Z,4.82
2023-04-02T07:08:14.258Z,4.93
2023-04-02T07:10:41.492Z,4.70
2023-04-02T07:13:17.453Z,4.50
2023-04-02T07:15:52.443Z,6.40
2023-04-02T07:18:34.995Z,6.22
2023-04-02T07:21:03.494Z,5.57
2023-04-02T07:23:31.379Z,4.68
2023-04-02T07:25:58.854Z,4.57
2023-04-02T07:28:26.207Z,5.00
2023-04-02T07:30:53.961Z,4.45
2023-04-02T07:33:25.492Z,5.82
2023-04-02T07:35:54.189Z,5.57
2023-04-02T07:38:21.677Z,6.90
2023-04-02T07:40:49.242Z,5.97
2023-04-02T07:43:16.878Z,4.40
2023-04-02T07:45:44.858Z,3.95
2023-04-02T07:48:14.044Z,3.78
2023-04-02T07:50:41.233Z,4.45
2023-04-02T07:53:09.694Z,3.45
2023-04-02T07:55:37.552Z,4.60
2023-04-02T07:58:04.911Z,2.75
2023-04-02T08:00:33.562Z,3.72
2023-04-02T08:03:00.545Z,3.65
2023-04-02T08:05:27.993Z,3.35
2023-04-02T08:07:56.967Z,3.15
2023-04-02T08:10:24.847Z,4.07
2023-04-02T08:12:52.483Z,3.47
2023-04-02T08:15:20.872Z,2.40
2023-04-02T08:17:48.144Z,3.63
2023-04-02T08:20:22.533Z,2.42
2023-04-02T08:22:53.380Z,2.80
2023-04-02T08:25:21.295Z,1.95
2023-04-02T08:27:51.245Z,2.28
2023-04-02T08:30:19.421Z,2.47
2023-04-02T08:32:47.300Z,2.47
2023-04-02T08:35:16.999Z,2.30
2023-04-02T08:37:44.269Z,3.50
2023-04-02T08:40:40.049Z,2.85
2023-04-02T08:43:44.286Z,1.50
2023-04-02T08:46:51.072Z,1.55
2023-04-02T08:49:32.785Z,1.77
2023-04-02T08:52:01.140Z,2.00
2023-04-02T08:54:37.983Z,1.58
2023-04-02T08:57:19.509Z,1.70
2023-04-02T08:59:48.109Z,1.40
2023-04-02T09:02:41.398Z,1.08
2023-04-02T09:07:47.839Z,1.60
2023-04-02T09:10:17.647Z,1.70
2023-04-02T09:12:51.932Z,1.80
2023-04-02T09:15:45.711Z,1.30
2023-04-02T09:18:19.259Z,1.38
2023-04-02T09:20:50.873Z,0.80
2023-04-02T09:23:23.165Z,1.10
2023-04-02T09:26:03.456Z,1.35
2023-04-02T09:28:33.550Z,1.10
2023-04-02T09:31:25.147Z,0.80
2023-04-02T09:33:55.784Z,1.20
2023-04-02T09:36:39.501Z,1.00
2023-04-02T09:39:19.153Z,1.10
2023-04-02T09:41:55.757Z,1.27
2023-04-02T09:44:32.083Z,1.13
2023-04-02T09:47:07.657Z,0.93
2023-04-02T09:49:38.418Z,1.60
2023-04-02T09:52:23.732Z,1.50
2023-04-02T09:55:20.579Z,1.10
2023-04-02T09:57:52.729Z,1.63
2023-04-02T10:00:31.994Z,1.10
2023-04-02T10:03:18.472Z,1.38
2023-04-02T10:05:47.844Z,1.00
2023-04-02T10:08:28.274Z,1.30
2023-04-02T10:11:03.124Z,1.40
2023-04-02T10:14:04.774Z,1.85
2023-04-02T10:17:00.051Z,1.58
2023-04-02T10:19:40.428Z,1.70
2023-04-02T10:22:17.428Z,1.75
2023-04-02T10:24:49.468Z,1.50
2023-04-02T10:27:38.055Z,1.83
2023-04-02T10:30:33.324Z,1.40
2023-04-02T10:33:11.003Z,1.23
2023-04-02T10:36:18.078Z,1.30
2023-04-02T10:38:59.655Z,1.30
2023-04-02T10:41:47.897Z,1.17
2023-04-02T10:44:47.591Z,1.20
2023-04-02T10:47:22.463Z,1.88
2023-04-02T10:50:26.852Z,1.58
2023-04-02T10:53:23.437Z,0.70
2023-04-02T10:56:09.890Z,0.40
2023-04-02T10:59:03.342Z,0.40
2023-04-02T11:01:34.211Z,0.40
2023-04-02T11:04:09.692Z,0.50
2023-04-02T11:07:03.468Z,0.80
2023-04-02T11:09:46.221Z,0.80
2023-04-02T11:12:48.826Z,1.00
2023-04-02T11:15:21.096Z,1.15
2023-04-02T11:17:48.867Z,1.70
2023-04-02T11:20:50.060Z,0.90
2023-04-02T11:23:22.031Z,1.13
2023-04-02T11:25:49.363Z,1.00
2023-04-02T11:28:29.422Z,1.30
2023-04-02T11:30:58.152Z,1.13
2023-04-02T11:33:38.226Z,0.90
2023-04-02T11:36:52.044Z,0.85
2023-04-02T11:40:00.488Z,1.25
2023-04-02T11:42:34.001Z,1.20
2023-04-02T11:45:24.352Z,0.95
2023-04-02T11:48:15.594Z,0.75
2023-04-02T11:50:46.747Z,0.70
2023-04-02T11:53:17.210Z,0.88
2023-04-02T11:56:06.856Z,1.13
2023-04-02T11:59:09.314Z,0.85
2023-04-02T12:02:04.403Z,0.98
2023-04-02T12:05:18.541Z,0.80
2023-04-02T12:08:12.235Z,0.70
2023-04-02T12:11:00.101Z,0.80
2023-04-02T12:13:42.481Z,0.82
2023-04-02T12:16:14.164Z,0.80
2023-04-02T12:18:57.997Z,0.70
2023-04-02T12:21:30.350Z,0.73
2023-04-02T12:24:01.973Z,0.70
2023-04-02T12:26:38.948Z,0.73
2023-04-02T12:29:33.232Z,0.60
2023-04-02T12:32:04.279Z,0.60
2023-04-02T12:34:31.565Z,0.60
2023-04-02T12:37:04.492Z,0.90
2023-04-02T12:42:08.046Z,0.88
2023-04-02T12:47:05.793Z,0.90
2023-04-02T12:49:40.859Z,0.65
2023-04-02T12:52:15.303Z,0.70
2023-04-02T12:55:05.494Z,1.15
2023-04-02T12:57:42.017Z,1.08
2023-04-02T13:00:21.322Z,0.85
2023-04-02T13:03:21.778Z,0.75
2023-04-02T13:05:57.365Z,0.90
2023-04-02T13:08:41.759Z,1.00
2023-04-02T13:11:10.727Z,0.73
2023-04-02T13:13:41.856Z,0.73
2023-04-02T13:16:40.800Z,1.40
2023-04-02T13:19:33.148Z,1.10
2023-04-02T13:22:03.392Z,1.13
2023-04-02T13:24:34.514Z,1.20
2023-04-02T13:27:03.960Z,1.50
2023-04-02T13:29:36.498Z,1.48
2023-04-02T13:32:11.575Z,0.90
2023-04-02T13:34:39.646Z,1.40
2023-04-02T13:37:07.235Z,1.70
2023-04-02T13:39:35.384Z,1.20
2023-04-02T13:42:07.944Z,1.00
2023-04-02T13:44:37.724Z,1.20
2023-04-02T13:47:05.608Z,1.10
2023-04-02T13:49:33.348Z,1.38
2023-04-02T13:52:05.570Z,1.40
2023-04-02T13:54:56.576Z,1.02
2023-04-02T13:57:25.885Z,1.08
2023-04-02T13:59:53.100Z,1.10
2023-04-02T14:02:27.174Z,1.23
2023-04-02T14:05:28.003Z,0.90
2023-04-02T14:08:10.542Z,1.80
2023-04-02T14:11:12.133Z,1.73
2023-04-02T14:14:09.719Z,1.27
2023-04-02T14:17:13.890Z,2.40
2023-04-02T14:20:15.562Z,1.60
2023-04-02T14:23:07.637Z,1.83
2023-04-02T14:26:11.781Z,1.55
2023-04-02T14:29:48.310Z,1.90
2023-04-02T14:32:33.265Z,1.52
2023-04-02T14:35:16.841Z,2.15
2023-04-02T14:38:12.106Z,1.40
2023-04-02T14:40:51.997Z,1.70
2023-04-02T14:43:46.085Z,1.52
2023-04-02T14:46:13.471Z,1.48
2023-04-02T14:49:04.189Z,2.00
2023-04-02T14:51:51.729Z,2.00
2023-04-02T14:54:40.668Z,1.70
2023-04-02T14:57:24.472Z,2.28
2023-04-02T15:00:50.109Z,2.03
2023-04-02T15:03:26.814Z,2.22
2023-04-02T15:06:15.762Z,1.90
2023-04-02T15:09:08.395Z,1.98
2023-04-02T15:14:36.361Z,1.55
2023-04-02T15:17:03.657Z,2.90
2023-04-02T15:19:30.980Z,2.78
2023-04-02T15:22:23.737Z,2.65
2023-04-02T15:25:12.113Z,2.78
2023-04-02T15:27:56.208Z,2.83
2023-04-02T15:30:29.686Z,3.65
2023-04-02T15:33:27.876Z,3.70
2023-04-02T15:36:29.788Z,3.42
2023-04-02T15:39:13.490Z,3.15
2023-04-02T15:42:12.370Z,3.10
2023-04-02T15:45:11.745Z,3.20
2023-04-02T15:48:05.233Z,3.33
2023-04-02T15:53:27.109Z,2.70
2023-04-02T15:56:07.295Z,3.58
2023-04-02T15:59:30.216Z,3.55
2023-04-02T16:02:13.314Z,3.25
2023-04-02T16:05:06.486Z,3.58
2023-04-02T16:08:07.588Z,3.95
2023-04-02T16:10:42.403Z,2.90
2023-04-02T16:13:26.941Z,3.65
2023-04-02T16:16:23.352Z,3.63
2023-04-02T16:19:21.014Z,3.10
2023-04-02T16:22:01.782Z,4.38
2023-04-02T16:24:30.592Z,4.20
2023-04-02T16:27:29.015Z,3.53
2023-04-02T16:30:35.751Z,4.22
2023-04-02T16:34:02.604Z,4.38
2023-04-02T16:37:14.227Z,3.70
2023-04-02T16:40:17.381Z,3.83
2023-04-02T16:43:02.960Z,4.47
2023-04-02T16:46:12.018Z,4.50
2023-04-02T16:49:05.433Z,4.03
2023-04-02T16:51:58.386Z,4.20
2023-04-02T16:54:52.646Z,4.53
2023-04-02T16:57:36.863Z,4.20
2023-04-02T17:00:11.108Z,3.83
2023-04-02T17:02:47.549Z,3.90
2023-04-02T17:05:46.326Z,4.07
2023-04-02T17:08:39.151Z,4.50
2023-04-02T17:11:32.019Z,5.10
2023-04-02T17:14:24.429Z,5.00
2023-04-02T17:17:02.674Z,5.47
2023-04-02T17:19:32.084Z,6.57
2023-04-02T17:22:08.009Z,6.30
2023-04-02T17:24:47.686Z,7.03
2023-04-02T17:27:33.011Z,7.30
2023-04-02T17:30:22.043Z,7.28
2023-04-02T17:32:49.935Z,7.43
2023-04-02T17:35:41.901Z,7.45
2023-04-02T17:38:33.370Z,6.57
2023-04-02T17:41:23.172Z,6.40
2023-04-02T17:44:18.317Z,7.50
2023-04-02T17:46:55.618Z,7.60
2023-04-02T17:49:58.041Z,7.35
2023-04-02T17:52:44.957Z,7.78
2023-04-02T17:55:47.939Z,8.82
2023-04-02T17:58:57.738Z,6.67
2023-04-02T18:01:51.294Z,7.72
2023-04-02T18:07:22.453Z,6.95
2023-04-02T18:10:12.300Z,4.95
2023-04-02T18:13:07.746Z,5.97
2023-04-02T18:15:55.466Z,5.35
2023-04-02T18:19:09.058Z,5.85
2023-04-02T18:22:06.292Z,5.85
2023-04-02T18:25:06.869Z,6.57
2023-04-02T18:28:16.569Z,6.55
2023-04-02T18:30:57.723Z,6.63
2023-04-02T18:33:58.634Z,6.57
2023-04-02T18:36:51.388Z,6.03
2023-04-02T18:39:58.065Z,8.63
2023-04-02T18:42:31.363Z,7.88
2023-04-02T18:45:18.908Z,8.07
2023-04-02T18:48:04.002Z,8.45
2023-04-02T18:50:36.599Z,8.27
2023-04-02T18:53:19.768Z,7.60
2023-04-02T18:56:06.703Z,7.00
2023-04-02T18:58:52.994Z,7.72
2023-04-02T19:01:32.666Z,6.13
2023-04-02T19:04:26.747Z,7.45
2023-04-02T19:07:11.812Z,7.55
2023-04-02T19:09:48.008Z,7.78
2023-04-02T19:12:22.213Z,7.43
2023-04-02T19:14:51.929Z,9.75
2023-04-02T19:17:37.480Z,7.70
2023-04-02T19:20:29.121Z,7.45
2023-04-02T19:23:04.346Z,9.18
2023-04-02T19:26:07.033Z,7.72
2023-04-02T19:28:44.092Z,7.25
2023-04-02T19:31:41.586Z,8.40
2023-04-02T19:34:17.314Z,7.40
2023-04-02T19:37:16.795Z,7.90
2023-04-02T19:40:26.740Z,8.18
2023-04-02T19:42:54.615Z,7.85
2023-04-02T19:45:29.309Z,8.43
2023-04-02T19:47:59.130Z,7.97
2023-04-02T19:50:26.407Z,7.63
2023-04-02T19:52:53.421Z,6.85
2023-04-02T19:55:20.389Z,7.22
2023-04-02T19:57:47.634Z,7.85
2023-04-02T20:00:16.309Z,7.32
2023-04-02T20:02:43.679Z,6.85
2023-04-02T20:05:11.453Z,6.93
2023-04-02T20:07:38.431Z,7.07
2023-04-02T20:10:06.498Z,7.07
2023-04-02T20:12:33.824Z,6.55
2023-04-02T20:15:00.996Z,6.15
2023-04-02T20:17:29.205Z,6.63
2023-04-02T20:19:57.417Z,6.25
2023-04-02T20:22:24.416Z,6.15
2023-04-02T20:24:51.596Z,5.88
2023-04-02T20:27:18.575Z,5.43
2023-04-02T20:29:46.527Z,5.88
2023-04-02T20:32:16.776Z,5.72
2023-04-02T20:34:44.275Z,5.28
2023-04-02T20:37:11.143Z,5.47
2023-04-02T20:39:41.292Z,6.00
2023-04-02T20:42:08.245Z,5.40
2023-04-02T20:44:37.278Z,4.68
2023-04-02T20:47:04.416Z,4.45
2023-04-02T20:49:31.441Z,4.75
2023-04-02T20:51:58.750Z,4.82
2023-04-02T20:55:12.371Z,4.53
2023-04-02T20:57:39.449Z,4.32
2023-04-02T21:00:08.645Z,4.03
2023-04-02T21:02:35.635Z,3.78
2023-04-02T21:05:03.613Z,3.47
2023-04-02T21:07:30.561Z,3.58
2023-04-02T21:09:57.604Z,3.70
2023-04-02T21:12:25.100Z,3.45
2023-04-02T21:14:57.308Z,4.22
2023-04-02T21:17:26.007Z,4.87
2023-04-02T21:19:53.034Z,4.47
2023-04-02T21:22:20.292Z,3.50
2023-04-02T21:24:47.242Z,3.78
2023-04-02T21:27:14.461Z,4.05
2023-04-02T21:29:41.354Z,3.55
2023-04-02T21:32:20.448Z,3.50
2023-04-02T21:34:48.555Z,3.63
2023-04-02T21:37:15.828Z,3.75
2023-04-02T21:39:42.755Z,3.53
2023-04-02T21:42:11.223Z,3.40
2023-04-02T21:44:38.188Z,3.22
2023-04-02T21:47:05.574Z,3.22
2023-04-02T21:49:32.505Z,3.38
2023-04-02T21:51:59.752Z,3.25
2023-04-02T21:54:26.883Z,3.35
2023-04-02T21:56:53.931Z,3.38
2023-04-02T21:59:21.679Z,3.20
2023-04-02T22:01:51.261Z,3.50
2023-04-02T22:04:25.498Z,2.97
2023-04-02T22:06:53.855Z,2.92
2023-04-02T22:09:26.675Z,3.10
2023-04-02T22:12:03.402Z,3.28
2023-04-02T22:14:30.887Z,3.13
2023-04-02T22:17:01.403Z,3.72
2023-04-02T22:19:33.099Z,3.20
2023-04-02T22:22:00.099Z,2.97
2023-04-02T22:24:27.575Z,3.28
2023-04-02T22:26:54.695Z,2.80
2023-04-02T22:29:21.960Z,2.42
2023-04-02T22:31:48.823Z,3.10
2023-04-02T22:34:15.784Z,3.15
2023-04-02T22:36:42.965Z,2.95
2023-04-02T22:39:12.281Z,3.03
2023-04-02T22:41:39.960Z,3.08
2023-04-02T22:44:07.057Z,2.72
2023-04-02T22:46:35.167Z,3.45
2023-04-02T22:49:02.339Z,3.10
2023-04-02T22:51:29.964Z,2.50
2023-04-02T22:53:57.359Z,2.33
2023-04-02T22:56:32.278Z,2.42
2023-04-02T22:58:59.649Z,2.65
2023-04-02T23:01:33.619Z,2.97
2023-04-02T23:04:00.520Z,3.20
2023-04-02T23:06:28.460Z,2.58
2023-04-02T23:08:55.414Z,2.72
2023-04-02T23:11:27.667Z,3.35
2023-04-02T23:13:57.267Z,2.55
2023-04-02T23:16:29.273Z,2.47
2023-04-02T23:18:57.499Z,2.58
2023-04-02T23:21:25.950Z,2.92
2023-04-02T23:23:53.072Z,2.70
2023-04-02T23:26:31.818Z,2.40
2023-04-02T23:29:00.602Z,2.80
2023-04-02T23:31:28.127Z,2.22
2023-04-02T23:33:55.489Z,2.15
2023-04-02T23:36:32.646Z,2.25
2023-04-02T23:39:09.424Z,2.17
2023-04-02T23:41:39.531Z,2.25
2023-04-02T23:44:07.022Z,1.60
2023-04-02T23:46:37.254Z,1.80
2023-04-02T23:49:32.362Z,2.20
2023-04-02T23:51:59.252Z,2.20
2023-04-02T23:54:26.501Z,1.90
2023-04-02T23:56:53.343Z,1.90
2023-04-02T23:59:20.246Z,2.08
